Time;durP1;ratioP1;P1;durP2;ratioP2;P2;SDS_P1;SDS_P2;PMS_P1;PMS_P2;Temp;Humidity;BMP_temperature;BMP_pressure;BME280_temperature;BME280_humidity;BME280_pressure;Samples;Min_cycle;Max_cycle;Signal;HPM_P1;HPM_P2
2021/07/21 00:00:52;;;;;;;19.45;13.00;;;;;;;;;;5088778;28;20401;-89
2021/07/21 00:03:20;;;;;;;14.43;12.35;;;;;;;;;;5105229;28;20390;-85
2021/07/21 00:05:47;;;;;;;14.73;12.57;;;;;;;;;;5089934;28;20412;-87
2021/07/21 00:08:14;;;;;;;13.93;11.43;;;;;;;;;;5108048;28;20370;-87
2021/07/21 00:10:40;;;;;;;14.77;12.20;;;;;;;;;;5088697;28;20751;-88
2021/07/21 00:18:37;;;;;;;109.70;20.88;;;;;;;;;;5086986;28;20388;-86
2021/07/21 00:21:03;;;;;;;102.90;20.75;;;;;;;;;;5097776;28;20382;-88
2021/07/21 00:23:30;;;;;;;65.78;18.23;;;;;;;;;;5097356;28;20371;-86
2021/07/21 00:25:58;;;;;;;60.15;16.70;;;;;;;;;;5115085;28;20374;-89
2021/07/21 00:28:24;;;;;;;51.10;16.27;;;;;;;;;;5091114;28;20383;-88
2021/07/21 00:30:50;;;;;;;52.33;15.57;;;;;;;;;;5106449;28;20359;-89
2021/07/21 00:33:18;;;;;;;32.57;13.77;;;;;;;;;;5085864;28;20363;-87
2021/07/21 00:35:44;;;;;;;25.87;14.07;;;;;;;;;;5084176;28;20367;-87
2021/07/21 00:38:10;;;;;;;24.88;14.13;;;;;;;;;;5086664;28;20373;-86
2021/07/21 00:40:36;;;;;;;21.13;13.80;;;;;;;;;;5095207;28;20371;-87
2021/07/21 00:43:02;;;;;;;18.17;14.07;;;;;;;;;;5112692;28;20867;-88
2021/07/21 00:45:29;;;;;;;17.25;14.35;;;;;;;;;;5094356;28;20375;-87
2021/07/21 00:47:54;;;;;;;16.58;13.77;;;;;;;;;;5092587;28;20378;-88
2021/07/21 00:50:20;;;;;;;16.60;14.77;;;;;;;;;;5092722;28;20360;-90
2021/07/21 00:52:47;;;;;;;15.73;13.75;;;;;;;;;;5092565;28;20868;-86
2021/07/21 00:55:14;;;;;;;18.88;13.82;;;;;;;;;;5092468;28;20406;-88
2021/07/21 00:57:42;;;;;;;15.00;13.32;;;;;;;;;;5095144;28;20870;-89
2021/07/21 01:00:10;;;;;;;17.45;13.82;;;;;;;;;;5096058;28;20402;-86
2021/07/21 01:02:36;;;;;;;16.98;14.75;;;;;;;;;;5096012;28;20389;-86
2021/07/21 01:05:04;;;;;;;15.73;13.75;;;;;;;;;;5095691;28;20382;-88
2021/07/21 01:07:30;;;;;;;17.77;14.45;;;;;;;;;;5096163;28;20378;-86
2021/07/21 01:09:56;;;;;;;16.60;13.80;;;;;;;;;;5113722;28;20367;-86
2021/07/21 01:12:32;;;;;;;16.13;13.88;;;;;;;;;;5096008;28;20406;-89
2021/07/21 01:15:13;;;;;;;15.33;13.73;;;;;;;;;;5113854;28;20817;-86
2021/07/21 01:17:57;;;;;;;17.08;13.98;;;;;;;;;;5095010;28;20371;-87
2021/07/21 01:20:37;;;;;;;15.33;12.73;;;;;;;;;;5095435;28;20413;-86
2021/07/21 01:23:21;;;;;;;14.57;13.10;;;;;;;;;;5113545;28;20459;-87
2021/07/21 01:26:05;;;;;;;14.95;13.07;;;;;;;;;;5095407;28;20852;-87
2021/07/21 01:28:32;;;;;;;13.90;12.48;;;;;;;;;;5113802;28;20363;-87
2021/07/21 01:30:59;;;;;;;14.97;12.57;;;;;;;;;;5095516;28;20876;-86
2021/07/21 01:33:25;;;;;;;15.48;12.35;;;;;;;;;;5095019;28;20375;-88
2021/07/21 01:35:54;;;;;;;13.68;12.25;;;;;;;;;;5094993;28;20759;-88
2021/07/21 01:38:24;;;;;;;14.77;11.70;;;;;;;;;;5113198;28;20382;-86
2021/07/21 01:40:54;;;;;;;14.48;12.98;;;;;;;;;;5094882;28;21016;-88
2021/07/21 01:43:23;;;;;;;13.40;12.00;;;;;;;;;;5095229;28;20378;-86
2021/07/21 01:45:51;;;;;;;14.63;13.13;;;;;;;;;;5094579;28;20371;-88
2021/07/21 01:48:19;;;;;;;15.05;13.48;;;;;;;;;;5094731;28;20381;-88
2021/07/21 01:50:45;;;;;;;15.00;12.87;;;;;;;;;;5094908;28;20381;-88
2021/07/21 01:53:12;;;;;;;15.20;13.25;;;;;;;;;;5112870;28;20443;-86
2021/07/21 01:55:38;;;;;;;15.00;13.40;;;;;;;;;;5094509;28;20404;-86
2021/07/21 01:58:05;;;;;;;14.52;13.13;;;;;;;;;;5094131;28;20371;-86
2021/07/21 02:00:32;;;;;;;16.77;12.80;;;;;;;;;;5112682;28;20875;-86
2021/07/21 02:02:59;;;;;;;14.88;12.68;;;;;;;;;;5094558;28;20943;-86
2021/07/21 02:05:26;;;;;;;14.35;12.88;;;;;;;;;;5094354;28;20374;-86
2021/07/21 02:07:53;;;;;;;14.15;12.82;;;;;;;;;;5093143;28;20392;-86
2021/07/21 02:10:21;;;;;;;14.07;12.68;;;;;;;;;;5094177;28;20406;-86
2021/07/21 02:12:58;;;;;;;14.13;12.70;;;;;;;;;;5093888;28;20366;-86
2021/07/21 02:15:25;;;;;;;16.08;14.00;;;;;;;;;;5112410;28;20370;-85
2021/07/21 02:17:52;;;;;;;17.15;14.10;;;;;;;;;;5094643;28;20424;-86
2021/07/21 02:20:19;;;;;;;15.55;13.85;;;;;;;;;;5113503;28;20397;-86
2021/07/21 02:22:45;;;;;;;15.77;12.80;;;;;;;;;;5093987;28;20359;-86
2021/07/21 02:25:12;;;;;;;14.80;13.30;;;;;;;;;;5093976;28;20370;-86
2021/07/21 02:27:40;;;;;;;14.68;12.95;;;;;;;;;;5093924;28;20367;-86
2021/07/21 02:30:07;;;;;;;15.20;13.60;;;;;;;;;;5112242;28;20408;-86
2021/07/21 02:32:36;;;;;;;15.88;13.32;;;;;;;;;;5093644;28;20792;-86
2021/07/21 02:35:03;;;;;;;14.33;12.83;;;;;;;;;;5093750;28;20886;-87
2021/07/21 02:37:29;;;;;;;14.90;13.35;;;;;;;;;;5111689;28;20882;-86
2021/07/21 02:39:55;;;;;;;14.57;13.07;;;;;;;;;;5111833;28;20390;-86
2021/07/21 02:42:21;;;;;;;15.38;13.30;;;;;;;;;;5093796;28;20378;-87
2021/07/21 02:44:48;;;;;;;15.57;13.98;;;;;;;;;;5093362;28;20390;-86
2021/07/21 02:47:15;;;;;;;15.20;13.70;;;;;;;;;;5111638;28;20444;-87
2021/07/21 02:49:42;;;;;;;15.83;14.23;;;;;;;;;;5093262;28;20371;-87
2021/07/21 02:52:18;;;;;;;15.60;14.02;;;;;;;;;;5093416;28;20383;-86
2021/07/21 02:54:53;;;;;;;15.68;13.98;;;;;;;;;;5093678;28;20432;-87
2021/07/21 02:57:28;;;;;;;17.10;13.30;;;;;;;;;;5111642;28;20435;-86
2021/07/21 02:59:56;;;;;;;15.77;13.30;;;;;;;;;;5093363;28;20447;-87
2021/07/21 03:02:24;;;;;;;16.65;14.40;;;;;;;;;;5111742;28;20907;-85
2021/07/21 03:04:51;;;;;;;19.80;14.90;;;;;;;;;;5093006;28;20933;-87
2021/07/21 03:07:18;;;;;;;15.30;13.70;;;;;;;;;;5111404;28;20363;-87
2021/07/21 03:09:44;;;;;;;16.15;14.15;;;;;;;;;;5093383;28;20405;-87
2021/07/21 03:12:13;;;;;;;16.38;13.57;;;;;;;;;;5111404;28;20943;-87
2021/07/21 03:14:41;;;;;;;18.05;14.10;;;;;;;;;;5092901;28;20871;-88
2021/07/21 03:17:08;;;;;;;18.85;14.60;;;;;;;;;;5111661;28;20370;-88
2021/07/21 03:19:35;;;;;;;16.33;14.50;;;;;;;;;;5093121;28;20444;-88
2021/07/21 03:22:02;;;;;;;15.15;13.48;;;;;;;;;;5093137;28;20378;-88
2021/07/21 03:24:29;;;;;;;20.13;14.02;;;;;;;;;;5101794;28;20480;-88
2021/07/21 03:26:55;;;;;;;16.38;13.77;;;;;;;;;;5095805;28;20386;-88
2021/07/21 03:29:22;;;;;;;16.48;14.10;;;;;;;;;;5095282;28;20382;-88
2021/07/21 03:31:48;;;;;;;15.75;14.00;;;;;;;;;;5093150;28;20379;-87
2021/07/21 03:34:17;;;;;;;18.15;14.45;;;;;;;;;;5093201;28;20370;-89
2021/07/21 03:36:45;;;;;;;19.02;14.00;;;;;;;;;;5093050;28;20448;-88
2021/07/21 03:39:12;;;;;;;17.42;14.35;;;;;;;;;;5093154;28;20448;-89
2021/07/21 03:41:39;;;;;;;16.30;13.88;;;;;;;;;;5093221;28;20378;-89
2021/07/21 03:44:07;;;;;;;18.65;14.18;;;;;;;;;;5111404;28;20359;-90
2021/07/21 03:46:36;;;;;;;14.93;13.03;;;;;;;;;;5093238;28;20367;-89
2021/07/21 03:49:02;;;;;;;17.58;13.35;;;;;;;;;;5093208;28;20803;-86
2021/07/21 03:51:31;;;;;;;15.83;13.50;;;;;;;;;;5111734;28;20365;-88
2021/07/21 03:53:57;;;;;;;16.55;13.95;;;;;;;;;;5093536;28;20862;-91
2021/07/21 03:56:25;;;;;;;15.70;13.93;;;;;;;;;;5093171;28;20399;-87
2021/07/21 03:58:51;;;;;;;17.33;14.07;;;;;;;;;;5111468;28;20435;-88
2021/07/21 04:01:17;;;;;;;16.95;13.73;;;;;;;;;;5094673;28;20709;-89
2021/07/21 04:03:44;;;;;;;15.70;13.57;;;;;;;;;;5093232;28;20374;-86
2021/07/21 04:06:11;;;;;;;17.58;13.75;;;;;;;;;;5094516;28;20383;-90
2021/07/21 04:08:38;;;;;;;15.25;12.25;;;;;;;;;;5096219;28;20458;-92
2021/07/21 04:11:05;;;;;;;17.23;13.00;;;;;;;;;;5096269;28;20367;-89
2021/07/21 04:13:33;;;;;;;15.65;13.52;;;;;;;;;;5097147;28;20838;-87
2021/07/21 04:15:59;;;;;;;15.77;13.18;;;;;;;;;;5097411;28;20436;-90
2021/07/21 04:18:26;;;;;;;16.85;12.98;;;;;;;;;;5098969;28;20780;-89
2021/07/21 04:20:53;;;;;;;18.58;13.75;;;;;;;;;;5099341;28;20374;-90
2021/07/21 04:23:20;;;;;;;16.90;13.60;;;;;;;;;;5116784;28;20378;-89
2021/07/21 04:25:48;;;;;;;17.20;13.48;;;;;;;;;;5095911;28;20458;-88
2021/07/21 04:28:14;;;;;;;17.00;13.27;;;;;;;;;;5079902;28;20397;-90
2021/07/21 04:30:40;;;;;;;15.40;12.88;;;;;;;;;;5115709;28;20363;-89
2021/07/21 04:33:07;;;;;;;15.35;12.75;;;;;;;;;;5102850;28;20379;-87
2021/07/21 04:35:33;;;;;;;14.68;13.07;;;;;;;;;;5103182;28;20390;-88
2021/07/21 04:37:59;;;;;;;15.20;13.60;;;;;;;;;;5102860;28;20431;-88
2021/07/21 04:40:38;;;;;;;17.40;13.33;;;;;;;;;;5102829;28;20405;-91
2021/07/21 04:43:06;;;;;;;16.35;12.80;;;;;;;;;;5101188;28;20401;-91
2021/07/21 04:45:32;;;;;;;15.38;12.38;;;;;;;;;;5100612;28;20378;-90
2021/07/21 04:47:59;;;;;;;14.88;12.38;;;;;;;;;;5099864;28;20455;-89
2021/07/21 04:50:25;;;;;;;14.60;12.93;;;;;;;;;;5100875;28;20378;-86
2021/07/21 04:52:51;;;;;;;17.00;13.38;;;;;;;;;;5118372;28;20373;-86
2021/07/21 04:55:17;;;;;;;15.95;12.35;;;;;;;;;;5118560;28;21189;-86
2021/07/21 04:57:45;;;;;;;14.93;12.30;;;;;;;;;;5098731;28;20382;-86
2021/07/21 05:00:11;;;;;;;13.80;11.95;;;;;;;;;;5099064;28;20721;-86
2021/07/21 05:02:37;;;;;;;20.17;12.68;;;;;;;;;;5099914;28;20378;-86
2021/07/21 05:05:04;;;;;;;16.17;12.27;;;;;;;;;;5100818;28;20369;-88
2021/07/21 05:07:30;;;;;;;16.35;12.30;;;;;;;;;;5100620;28;20402;-90
2021/07/21 05:09:56;;;;;;;13.35;10.88;;;;;;;;;;5099987;28;20367;-85
2021/07/21 05:12:21;;;;;;;16.48;12.15;;;;;;;;;;5099929;28;20397;-87
2021/07/21 05:14:47;;;;;;;12.90;11.35;;;;;;;;;;5099380;28;20366;-86
2021/07/21 05:17:13;;;;;;;14.55;12.63;;;;;;;;;;5099529;28;20886;-85
2021/07/21 05:19:39;;;;;;;13.93;12.07;;;;;;;;;;5099265;28;20402;-85
2021/07/21 05:22:05;;;;;;;14.77;12.33;;;;;;;;;;5099370;28;20470;-83
2021/07/21 05:24:31;;;;;;;14.23;12.70;;;;;;;;;;5098860;28;20449;-84
2021/07/21 05:26:57;;;;;;;13.55;12.15;;;;;;;;;;5098014;28;20796;-86
2021/07/21 05:29:23;;;;;;;13.70;12.25;;;;;;;;;;5098003;28;20761;-87
2021/07/21 05:31:50;;;;;;;13.63;11.52;;;;;;;;;;5116130;28;20370;-85
2021/07/21 05:34:16;;;;;;;13.30;11.98;;;;;;;;;;5097416;28;20817;-86
2021/07/21 05:36:42;;;;;;;13.40;12.00;;;;;;;;;;5096087;28;20465;-86
2021/07/21 05:39:09;;;;;;;14.27;11.50;;;;;;;;;;5096158;28;20459;-86
2021/07/21 05:41:36;;;;;;;13.77;12.23;;;;;;;;;;5097265;28;20375;-88
2021/07/21 05:44:02;;;;;;;13.77;12.10;;;;;;;;;;5096397;28;20385;-84
2021/07/21 05:46:29;;;;;;;15.85;12.02;;;;;;;;;;5095882;28;20374;-85
2021/07/21 05:48:55;;;;;;;16.98;12.75;;;;;;;;;;5113675;28;20367;-85
2021/07/21 05:51:21;;;;;;;16.63;12.48;;;;;;;;;;5096407;28;20440;-85
2021/07/21 05:53:47;;;;;;;15.77;12.93;;;;;;;;;;5113775;28;20375;-86
2021/07/21 05:56:14;;;;;;;14.85;12.15;;;;;;;;;;5114630;28;20523;-86
2021/07/21 05:58:40;;;;;;;17.13;12.25;;;;;;;;;;5115044;28;20382;-87
2021/07/21 06:01:06;;;;;;;12.95;11.57;;;;;;;;;;5096866;28;20379;-91
2021/07/21 06:03:32;;;;;;;17.70;12.85;;;;;;;;;;5095820;28;20382;-88
2021/07/21 06:05:58;;;;;;;16.65;12.23;;;;;;;;;;5114065;28;20363;-87
2021/07/21 06:08:24;;;;;;;15.02;12.10;;;;;;;;;;5095951;28;20868;-89
2021/07/21 06:10:50;;;;;;;15.20;11.97;;;;;;;;;;5113092;28;20407;-89
2021/07/21 06:13:16;;;;;;;15.57;12.32;;;;;;;;;;5094910;28;20387;-85
2021/07/21 06:15:43;;;;;;;15.67;12.10;;;;;;;;;;5111463;28;20371;-86
2021/07/21 06:18:09;;;;;;;13.60;11.80;;;;;;;;;;5094542;28;20409;-84
2021/07/21 06:20:37;;;;;;;14.35;11.80;;;;;;;;;;5091286;28;20535;-88
2021/07/21 06:23:03;;;;;;;13.07;11.15;;;;;;;;;;5082826;28;20419;-87
2021/07/21 06:25:30;;;;;;;13.73;11.50;;;;;;;;;;5074892;28;20408;-88
2021/07/21 06:27:56;;;;;;;13.18;11.50;;;;;;;;;;5073330;28;20426;-83
2021/07/21 06:30:22;;;;;;;15.20;11.57;;;;;;;;;;5073779;28;20369;-87
2021/07/21 06:32:48;;;;;;;15.48;11.70;;;;;;;;;;5074502;28;20391;-86
2021/07/21 06:35:14;;;;;;;13.67;11.43;;;;;;;;;;5093151;28;20368;-86
2021/07/21 06:37:40;;;;;;;12.38;10.73;;;;;;;;;;5074396;28;20784;-85
2021/07/21 06:40:06;;;;;;;12.70;10.97;;;;;;;;;;5091716;28;20436;-86
2021/07/21 06:42:33;;;;;;;12.45;11.15;;;;;;;;;;5091422;28;20902;-86
2021/07/21 06:44:59;;;;;;;12.60;10.73;;;;;;;;;;5073428;28;20826;-86
2021/07/21 06:47:25;;;;;;;12.38;10.95;;;;;;;;;;5092186;28;20392;-87
2021/07/21 06:49:51;;;;;;;12.83;11.23;;;;;;;;;;5096729;28;20380;-86
2021/07/21 06:52:21;;;;;;;15.32;11.15;;;;;;;;;;5093717;28;20364;-88
2021/07/21 06:54:47;;;;;;;13.32;11.90;;;;;;;;;;5075050;28;20357;-89
2021/07/21 06:57:13;;;;;;;13.27;11.25;;;;;;;;;;5092879;28;20542;-90
2021/07/21 06:59:39;;;;;;;14.63;11.50;;;;;;;;;;5076751;28;20770;-86
2021/07/21 07:02:06;;;;;;;11.32;10.02;;;;;;;;;;5092974;28;20781;-85
2021/07/21 07:04:32;;;;;;;11.98;9.98;;;;;;;;;;5095404;28;20364;-84
2021/07/21 07:06:58;;;;;;;11.48;10.27;;;;;;;;;;5079323;28;20391;-88
2021/07/21 07:09:24;;;;;;;11.38;10.18;;;;;;;;;;5080810;28;20416;-88
2021/07/21 07:11:51;;;;;;;11.27;10.10;;;;;;;;;;5079014;28;20437;-85
2021/07/21 07:14:18;;;;;;;12.48;9.88;;;;;;;;;;5074144;28;20869;-91
2021/07/21 07:16:44;;;;;;;13.53;9.87;;;;;;;;;;5073997;28;20369;-90
2021/07/21 07:19:10;;;;;;;10.02;8.68;;;;;;;;;;5091792;28;20392;-82
2021/07/21 07:21:37;;;;;;;9.85;8.85;;;;;;;;;;5073426;28;20384;-88
2021/07/21 07:24:03;;;;;;;9.80;8.80;;;;;;;;;;5073712;28;20364;-86
2021/07/21 07:26:30;;;;;;;12.23;9.20;;;;;;;;;;5099663;28;20371;-89
2021/07/21 07:28:57;;;;;;;9.60;8.60;;;;;;;;;;5092435;28;20826;-86
2021/07/21 07:31:23;;;;;;;9.30;8.35;;;;;;;;;;5093472;28;20431;-89
2021/07/21 07:33:49;;;;;;;9.32;8.43;;;;;;;;;;5093978;28;20379;-88
2021/07/21 07:36:15;;;;;;;10.60;8.25;;;;;;;;;;5093846;28;20382;-91
2021/07/21 07:38:41;;;;;;;10.63;7.93;;;;;;;;;;5093718;28;20406;-86
2021/07/21 07:41:08;;;;;;;13.32;8.93;;;;;;;;;;5111813;28;20868;-88
2021/07/21 07:43:37;;;;;;;9.00;8.10;;;;;;;;;;5093467;28;20381;-86
2021/07/21 07:46:03;;;;;;;8.98;7.82;;;;;;;;;;5112469;28;20450;-88
2021/07/21 07:48:31;;;;;;;10.68;8.43;;;;;;;;;;5107892;28;20503;-91
2021/07/21 07:50:57;;;;;;;10.10;8.50;;;;;;;;;;5081101;28;20407;-89
2021/07/21 07:53:23;;;;;;;9.20;8.30;;;;;;;;;;5092875;28;20394;-85
2021/07/21 07:55:49;;;;;;;10.63;8.57;;;;;;;;;;5082476;28;20388;-88
2021/07/21 07:58:15;;;;;;;10.52;9.20;;;;;;;;;;5073040;28;20430;-88
2021/07/21 08:00:41;;;;;;;10.38;8.75;;;;;;;;;;5072746;28;20419;-89
2021/07/21 08:03:07;;;;;;;9.23;8.32;;;;;;;;;;5091503;28;20372;-90
2021/07/21 08:05:33;;;;;;;12.35;9.02;;;;;;;;;;5072619;28;20380;-88
2021/07/21 08:08:02;;;;;;;11.27;9.20;;;;;;;;;;5104996;28;20453;-86
2021/07/21 08:10:29;;;;;;;10.27;9.15;;;;;;;;;;5115276;28;20409;-86
2021/07/21 08:12:55;;;;;;;10.10;8.77;;;;;;;;;;5115227;28;20778;-86
2021/07/21 08:15:21;;;;;;;11.32;8.75;;;;;;;;;;5097177;28;20373;-87
2021/07/21 08:17:47;;;;;;;10.70;8.07;;;;;;;;;;5096862;28;20450;-87
2021/07/21 08:20:13;;;;;;;10.63;8.80;;;;;;;;;;5096527;28;20394;-86
2021/07/21 08:22:40;;;;;;;9.60;8.18;;;;;;;;;;5096533;28;20374;-86
2021/07/21 08:25:07;;;;;;;11.82;8.50;;;;;;;;;;5116151;28;20497;-86
2021/07/21 08:27:33;;;;;;;9.30;8.40;;;;;;;;;;5097200;28;20371;-89
2021/07/21 08:29:59;;;;;;;9.77;8.77;;;;;;;;;;5096808;28;20448;-85
2021/07/21 08:32:25;;;;;;;9.13;8.23;;;;;;;;;;5115453;28;20362;-87
2021/07/21 08:34:51;;;;;;;9.88;8.65;;;;;;;;;;5097093;28;20373;-88
2021/07/21 08:37:17;;;;;;;10.30;8.02;;;;;;;;;;5116264;28;20936;-90
2021/07/21 08:39:43;;;;;;;7.75;6.85;;;;;;;;;;5097317;28;20397;-88
2021/07/21 08:42:11;;;;;;;8.40;6.57;;;;;;;;;;5115658;28;20371;-81
2021/07/21 08:44:37;;;;;;;6.82;5.97;;;;;;;;;;5104516;28;20375;-88
2021/07/21 08:47:07;;;;;;;7.07;5.70;;;;;;;;;;5076426;28;21249;-89
2021/07/21 08:49:34;;;;;;;8.20;5.00;;;;;;;;;;5076423;28;20382;-86
2021/07/21 08:52:02;;;;;;;6.28;4.78;;;;;;;;;;5075978;28;20392;-86
2021/07/21 08:54:28;;;;;;;4.93;4.35;;;;;;;;;;5111861;28;20897;-88
2021/07/21 08:56:56;;;;;;;3.60;2.90;;;;;;;;;;5095143;28;20790;-87
2021/07/21 08:59:23;;;;;;;3.20;2.90;;;;;;;;;;5094755;28;20391;-84
2021/07/21 09:01:49;;;;;;;4.50;3.10;;;;;;;;;;5085471;28;20374;-87
2021/07/21 09:04:15;;;;;;;5.57;2.70;;;;;;;;;;5095512;28;20381;-86
2021/07/21 09:06:42;;;;;;;9.32;2.60;;;;;;;;;;5095857;28;20378;-89
2021/07/21 09:09:08;;;;;;;4.32;2.33;;;;;;;;;;5095439;28;20505;-92
2021/07/21 09:11:34;;;;;;;4.75;2.50;;;;;;;;;;5095198;28;20371;-85
2021/07/21 09:14:00;;;;;;;3.40;2.30;;;;;;;;;;5077045;28;20947;-85
2021/07/21 09:16:26;;;;;;;5.72;2.95;;;;;;;;;;5100603;28;20414;-86
2021/07/21 09:18:53;;;;;;;3.10;2.80;;;;;;;;;;5091391;28;20402;-85
2021/07/21 09:21:21;;;;;;;2.90;2.60;;;;;;;;;;5092083;28;20383;-85
2021/07/21 09:23:48;;;;;;;4.07;2.50;;;;;;;;;;5089731;28;20379;-84
2021/07/21 09:26:23;;;;;;;3.53;2.70;;;;;;;;;;5109591;28;20394;-88
2021/07/21 09:28:50;;;;;;;4.78;3.00;;;;;;;;;;5092412;28;20371;-85
2021/07/21 09:31:38;;;;;;;4.13;2.72;;;;;;;;;;5092312;28;20367;-85
2021/07/21 09:34:16;;;;;;;3.35;2.90;;;;;;;;;;5091211;28;20378;-85
2021/07/21 09:36:44;;;;;;;5.30;3.00;;;;;;;;;;5090656;28;20437;-85
2021/07/21 09:39:11;;;;;;;4.80;3.17;;;;;;;;;;5109844;28;21014;-84
2021/07/21 09:41:38;;;;;;;5.70;3.30;;;;;;;;;;5091084;28;20383;-83
2021/07/21 09:44:05;;;;;;;5.18;3.10;;;;;;;;;;5091249;28;20417;-86
2021/07/21 09:46:38;;;;;;;3.70;3.05;;;;;;;;;;5108343;28;20395;-87
2021/07/21 09:49:05;;;;;;;5.03;3.00;;;;;;;;;;5107480;28;20390;-85
2021/07/21 09:51:32;;;;;;;4.30;3.17;;;;;;;;;;5090045;28;20787;-85
2021/07/21 09:54:15;;;;;;;7.55;3.15;;;;;;;;;;5089363;28;20386;-86
2021/07/21 09:56:41;;;;;;;7.28;3.17;;;;;;;;;;5090939;28;20440;-85
2021/07/21 09:59:21;;;;;;;5.20;3.20;;;;;;;;;;5108709;28;20410;-88
2021/07/21 10:01:47;;;;;;;3.85;2.90;;;;;;;;;;5087570;28;20386;-86
2021/07/21 10:04:15;;;;;;;4.85;3.05;;;;;;;;;;5090531;28;20394;-85
2021/07/21 10:06:43;;;;;;;4.10;2.57;;;;;;;;;;5090937;28;20379;-91
2021/07/21 10:09:10;;;;;;;3.90;2.97;;;;;;;;;;5109168;28;20451;-88
2021/07/21 10:11:37;;;;;;;6.20;3.15;;;;;;;;;;5108087;28;20423;-84
2021/07/21 10:14:03;;;;;;;4.10;2.80;;;;;;;;;;5089281;28;20458;-88
2021/07/21 10:16:36;;;;;;;3.67;2.53;;;;;;;;;;5107921;28;20385;-84
2021/07/21 10:19:02;;;;;;;5.28;2.53;;;;;;;;;;5107395;28;20391;-87
2021/07/21 10:21:29;;;;;;;3.72;2.63;;;;;;;;;;5109383;28;20381;-87
2021/07/21 10:23:55;;;;;;;4.40;2.70;;;;;;;;;;5108471;28;20383;-84
2021/07/21 10:26:21;;;;;;;2.85;2.55;;;;;;;;;;5089040;28;20394;-86
2021/07/21 10:28:47;;;;;;;3.78;2.60;;;;;;;;;;5089696;28;20383;-84
2021/07/21 10:31:13;;;;;;;3.25;2.50;;;;;;;;;;5090710;28;20839;-87
2021/07/21 10:33:39;;;;;;;3.60;3.03;;;;;;;;;;5108670;28;20371;-85
2021/07/21 10:36:05;;;;;;;2.75;2.35;;;;;;;;;;5090204;28;20546;-86
2021/07/21 10:38:31;;;;;;;5.53;2.63;;;;;;;;;;5109095;28;20398;-87
2021/07/21 10:40:59;;;;;;;4.60;2.78;;;;;;;;;;5108234;28;20439;-89
2021/07/21 10:43:28;;;;;;;3.65;2.63;;;;;;;;;;5088200;28;20842;-85
2021/07/21 10:45:54;;;;;;;3.70;2.83;;;;;;;;;;5085458;28;20393;-92
2021/07/21 10:48:40;;;;;;;3.70;2.53;;;;;;;;;;5087887;28;20481;-87
2021/07/21 10:51:16;;;;;;;3.45;3.05;;;;;;;;;;5088036;27;20403;-86
2021/07/21 10:59:40;;;;;;;4.90;2.90;;;;;;;;;;5101234;28;20919;-89
2021/07/21 11:02:06;;;;;;;3.97;2.93;;;;;;;;;;5089923;28;20899;-85
2021/07/21 11:04:42;;;;;;;3.90;2.92;;;;;;;;;;5089611;28;20761;-89
2021/07/21 11:07:08;;;;;;;3.92;3.00;;;;;;;;;;5088587;28;21309;-86
2021/07/21 11:09:38;;;;;;;5.33;3.47;;;;;;;;;;5089340;28;20379;-86
2021/07/21 11:12:05;;;;;;;5.32;3.33;;;;;;;;;;5104819;28;20864;-84
2021/07/21 11:14:33;;;;;;;4.90;3.20;;;;;;;;;;5088713;28;20895;-87
2021/07/21 11:17:02;;;;;;;4.82;3.25;;;;;;;;;;5089205;28;20454;-87
2021/07/21 11:19:31;;;;;;;5.05;3.60;;;;;;;;;;5109223;28;20424;-90
2021/07/21 11:22:09;;;;;;;5.47;3.83;;;;;;;;;;5088198;28;20375;-88
2021/07/21 11:24:55;;;;;;;5.90;4.22;;;;;;;;;;5088516;28;20883;-85
2021/07/21 11:27:42;;;;;;;5.35;4.07;;;;;;;;;;5109343;27;20370;-88
2021/07/21 11:30:26;;;;;;;4.53;3.92;;;;;;;;;;5107124;28;20387;-89
2021/07/21 11:32:53;;;;;;;8.00;4.13;;;;;;;;;;5089769;28;20872;-88
2021/07/21 11:35:45;;;;;;;6.00;3.92;;;;;;;;;;5089673;28;20439;-86
2021/07/21 11:38:20;;;;;;;6.10;4.03;;;;;;;;;;5088374;28;20374;-88
2021/07/21 11:40:46;;;;;;;5.85;4.00;;;;;;;;;;5090811;28;20477;-88
2021/07/21 11:43:31;;;;;;;6.32;4.20;;;;;;;;;;5090244;28;20733;-85
2021/07/21 11:46:02;;;;;;;6.38;4.38;;;;;;;;;;5089649;28;20491;-88
2021/07/21 11:48:28;;;;;;;7.67;4.67;;;;;;;;;;5090562;28;20369;-87
2021/07/21 11:50:54;;;;;;;9.03;4.93;;;;;;;;;;5108137;28;20804;-86
2021/07/21 11:53:21;;;;;;;5.70;4.63;;;;;;;;;;5090280;28;20482;-87
2021/07/21 11:55:47;;;;;;;7.93;4.68;;;;;;;;;;5089407;28;20478;-89
2021/07/21 11:58:14;;;;;;;7.20;4.77;;;;;;;;;;5088064;28;20509;-85
2021/07/21 12:00:47;;;;;;;8.50;5.05;;;;;;;;;;5108065;28;21016;-88
2021/07/21 12:03:13;;;;;;;7.10;5.03;;;;;;;;;;5107972;28;20382;-84
2021/07/21 12:05:40;;;;;;;7.30;4.97;;;;;;;;;;5106922;28;20855;-89
2021/07/21 12:08:07;;;;;;;10.07;5.35;;;;;;;;;;5083632;28;20390;-89
2021/07/21 12:10:33;;;;;;;6.85;5.32;;;;;;;;;;5084718;28;20394;-85
2021/07/21 12:13:09;;;;;;;9.13;5.22;;;;;;;;;;5089874;28;20389;-86
2021/07/21 12:15:35;;;;;;;6.25;5.05;;;;;;;;;;5083216;28;20388;-88
2021/07/21 12:18:09;;;;;;;6.37;4.97;;;;;;;;;;5089505;28;20389;-84
2021/07/21 12:20:36;;;;;;;6.85;5.30;;;;;;;;;;5097433;28;20438;-87
2021/07/21 12:23:02;;;;;;;6.40;5.00;;;;;;;;;;5103155;28;20460;-85
2021/07/21 12:25:30;;;;;;;6.50;5.00;;;;;;;;;;5084516;28;21130;-86
2021/07/21 12:27:58;;;;;;;6.05;5.13;;;;;;;;;;5088699;28;20470;-85
2021/07/21 12:30:31;;;;;;;7.45;4.78;;;;;;;;;;5087731;28;20449;-89
2021/07/21 12:32:58;;;;;;;6.00;5.40;;;;;;;;;;5087338;28;20398;-83
2021/07/21 12:35:26;;;;;;;7.28;5.15;;;;;;;;;;5106834;28;20465;-87
2021/07/21 12:37:53;;;;;;;5.53;4.87;;;;;;;;;;5089346;28;20377;-90
2021/07/21 12:40:20;;;;;;;6.40;5.22;;;;;;;;;;5086841;28;20400;-87
2021/07/21 12:42:47;;;;;;;7.38;4.82;;;;;;;;;;5088471;28;20415;-89
2021/07/21 12:45:17;;;;;;;7.20;4.90;;;;;;;;;;5088606;28;20394;-88
2021/07/21 12:47:45;;;;;;;6.53;4.95;;;;;;;;;;5090670;28;20374;-87
2021/07/21 12:50:13;;;;;;;5.95;5.15;;;;;;;;;;5090062;28;20397;-87
2021/07/21 12:52:44;;;;;;;7.43;5.45;;;;;;;;;;5091382;28;20449;-87
2021/07/21 12:55:14;;;;;;;8.57;5.72;;;;;;;;;;5093324;28;20872;-88
2021/07/21 12:57:45;;;;;;;7.22;5.78;;;;;;;;;;5111069;28;20522;-86
2021/07/21 13:00:15;;;;;;;7.43;5.45;;;;;;;;;;5094873;28;20395;-86
2021/07/21 13:02:41;;;;;;;8.07;5.82;;;;;;;;;;5094130;28;20393;-89
2021/07/21 13:05:26;;;;;;;12.37;6.40;;;;;;;;;;5093904;28;20397;-84
2021/07/21 13:07:54;;;;;;;7.20;5.50;;;;;;;;;;5093961;28;20425;-89
2021/07/21 13:10:22;;;;;;;6.53;5.47;;;;;;;;;;5117760;27;20446;-88
2021/07/21 13:12:49;;;;;;;7.20;5.30;;;;;;;;;;5089650;28;20408;-86
2021/07/21 13:15:23;;;;;;;6.23;4.93;;;;;;;;;;5092429;28;20461;-89
2021/07/21 13:17:58;;;;;;;7.10;5.20;;;;;;;;;;5104230;28;20453;-85
2021/07/21 13:20:29;;;;;;;6.23;4.63;;;;;;;;;;5102676;28;20441;-89
2021/07/21 13:23:31;;;;;;;6.15;5.03;;;;;;;;;;5088594;28;20401;-86
2021/07/21 13:26:08;;;;;;;10.27;5.10;;;;;;;;;;5039724;28;20421;-86
2021/07/21 13:28:35;;;;;;;5.60;4.93;;;;;;;;;;5081269;28;20758;-86
2021/07/21 13:31:15;;;;;;;6.25;5.28;;;;;;;;;;5103557;28;20378;-89
2021/07/21 13:33:42;;;;;;;6.25;5.05;;;;;;;;;;5085595;28;20385;-86
2021/07/21 13:36:13;;;;;;;7.45;5.25;;;;;;;;;;5087324;28;20437;-85
2021/07/21 13:38:49;;;;;;;6.13;5.53;;;;;;;;;;5086357;28;20376;-88
2021/07/21 13:41:24;;;;;;;9.05;5.25;;;;;;;;;;5083249;28;20411;-89
2021/07/21 13:43:55;;;;;;;7.25;5.00;;;;;;;;;;5084606;28;20445;-87
2021/07/21 13:46:26;;;;;;;6.35;5.20;;;;;;;;;;5111495;28;20386;-88
2021/07/21 13:48:59;;;;;;;6.47;5.78;;;;;;;;;;5092144;28;20431;-87
2021/07/21 13:51:35;;;;;;;7.22;5.40;;;;;;;;;;5103222;28;20435;-87
2021/07/21 13:54:11;;;;;;;7.75;5.43;;;;;;;;;;5103798;28;20375;-88
2021/07/21 13:56:38;;;;;;;6.67;5.20;;;;;;;;;;5090468;28;20394;-88
2021/07/21 13:59:05;;;;;;;6.93;5.83;;;;;;;;;;5105521;27;20406;-87
2021/07/21 14:01:34;;;;;;;8.88;5.57;;;;;;;;;;5083012;28;20380;-89
2021/07/21 14:04:07;;;;;;;6.60;5.20;;;;;;;;;;5087195;28;20380;-86
2021/07/21 14:06:34;;;;;;;6.60;5.30;;;;;;;;;;5086981;28;20439;-93
2021/07/21 14:09:00;;;;;;;7.43;5.45;;;;;;;;;;5102349;28;20379;-86
2021/07/21 14:11:27;;;;;;;5.95;5.35;;;;;;;;;;5098763;28;20386;-87
2021/07/21 14:13:53;;;;;;;6.28;5.60;;;;;;;;;;5083292;28;20388;-85
2021/07/21 14:16:23;;;;;;;11.65;5.95;;;;;;;;;;5092591;28;20395;-87
2021/07/21 14:18:49;;;;;;;11.98;6.45;;;;;;;;;;5093224;28;20432;-89
2021/07/21 14:21:15;;;;;;;9.13;6.10;;;;;;;;;;5094669;28;20367;-87
2021/07/21 14:23:42;;;;;;;8.63;6.40;;;;;;;;;;5095221;28;20420;-85
2021/07/21 14:26:09;;;;;;;8.63;6.53;;;;;;;;;;5089783;28;20394;-90
2021/07/21 14:28:35;;;;;;;8.98;6.32;;;;;;;;;;5098701;28;20821;-86
2021/07/21 14:31:02;;;;;;;9.70;6.30;;;;;;;;;;5102504;28;20444;-88
2021/07/21 14:33:28;;;;;;;8.40;6.43;;;;;;;;;;5087035;28;20407;-86
2021/07/21 14:35:54;;;;;;;8.27;6.40;;;;;;;;;;5084424;27;20929;-84
2021/07/21 14:38:20;;;;;;;12.33;6.50;;;;;;;;;;5082230;28;20395;-86
2021/07/21 14:40:46;;;;;;;9.20;6.80;;;;;;;;;;5080048;28;20736;-86
2021/07/21 14:43:13;;;;;;;7.63;6.68;;;;;;;;;;5079699;28;20381;-88
2021/07/21 14:45:39;;;;;;;8.48;6.25;;;;;;;;;;5102587;28;20400;-88